sensor_id;sensor_type;location;lat;lon;timestamp;temperature;humidity
34558;DHT22;24708;48.888;8.736;2023-01-04T06:30:39;5.50;99.90
34558;DHT22;24708;48.888;8.736;2023-01-04T06:33:06;5.50;99.90
34558;DHT22;24708;48.888;8.736;2023-01-04T06:35:33;5.50;99.90
34558;DHT22;24708;48.888;8.736;2023-01-04T06:38:02;5.50;99.90
34558;DHT22;24708;48.888;8.736;2023-01-04T06:40:29;5.50;99.90
34558;DHT22;24708;48.888;8.736;2023-01-04T06:42:56;5.50;99.90
34558;DHT22;24708;48.888;8.736;2023-01-04T06:45:23;5.50;99.90
34558;DHT22;24708;48.888;8.736;2023-01-04T06:47:51;5.50;99.90
34558;DHT22;24708;48.888;8.736;2023-01-04T06:50:18;5.60;99.90
34558;DHT22;24708;48.888;8.736;2023-01-04T06:52:45;5.60;99.90
34558;DHT22;24708;48.888;8.736;2023-01-04T06:55:13;5.60;99.90
34558;DHT22;24708;48.888;8.736;2023-01-04T06:57:40;5.60;99.90
34558;DHT22;24708;48.888;8.736;2023-01-04T07:00:07;5.70;99.90
34558;DHT22;24708;48.888;8.736;2023-01-04T07:02:35;5.70;99.90
34558;DHT22;24708;48.888;8.736;2023-01-04T07:05:03;5.70;99.90
34558;DHT22;24708;48.888;8.736;2023-01-04T07:07:32;5.70;99.90
34558;DHT22;24708;48.888;8.736;2023-01-04T07:09:59;5.60;99.90
34558;DHT22;24708;48.888;8.736;2023-01-04T07:12:37;5.60;99.90
34558;DHT22;24708;48.888;8.736;2023-01-04T07:15:05;5.60;99.90
34558;DHT22;24708;48.888;8.736;2023-01-04T07:17:52;5.50;99.90
34558;DHT22;24708;48.888;8.736;2023-01-04T07:20:19;5.40;99.90
34558;DHT22;24708;48.888;8.736;2023-01-04T07:22:47;5.50;99.90
34558;DHT22;24708;48.888;8.736;2023-01-04T07:25:14;5.50;99.90
34558;DHT22;24708;48.888;8.736;2023-01-04T07:27:41;5.60;99.90
34558;DHT22;24708;48.888;8.736;2023-01-04T07:30:09;5.60;99.90
34558;DHT22;24708;48.888;8.736;2023-01-04T07:32:37;5.60;99.90
34558;DHT22;24708;48.888;8.736;2023-01-04T07:35:04;5.70;99.90
34558;DHT22;24708;48.888;8.736;2023-01-04T07:37:31;5.80;99.90
34558;DHT22;24708;48.888;8.736;2023-01-04T07:39:58;5.80;99.90
34558;DHT22;24708;48.888;8.736;2023-01-04T07:42:26;5.90;99.90
34558;DHT22;24708;48.888;8.736;2023-01-04T07:44:53;5.90;99.90
34558;DHT22;24708;48.888;8.736;2023-01-04T07:47:20;5.90;99.90
34558;DHT22;24708;48.888;8.736;2023-01-04T07:49:48;5.90;99.90
34558;DHT22;24708;48.888;8.736;2023-01-04T07:52:16;6.00;99.90
34558;DHT22;24708;48.888;8.736;2023-01-04T07:54:43;6.00;99.90
34558;DHT22;24708;48.888;8.736;2023-01-04T07:57:10;6.10;99.90
34558;DHT22;24708;48.888;8.736;2023-01-04T07:59:37;6.20;99.90
34558;DHT22;24708;48.888;8.736;2023-01-04T08:02:04;6.40;99.90
34558;DHT22;24708;48.888;8.736;2023-01-04T08:04:32;6.50;99.90
34558;DHT22;24708;48.888;8.736;2023-01-04T08:07:01;6.60;99.90
34558;DHT22;24708;48.888;8.736;2023-01-04T08:09:29;6.70;99.90
34558;DHT22;24708;48.888;8.736;2023-01-04T08:11:56;6.80;99.90
34558;DHT22;24708;48.888;8.736;2023-01-04T08:14:23;6.90;99.90
34558;DHT22;24708;48.888;8.736;2023-01-04T08:16:50;6.90;99.90
34558;DHT22;24708;48.888;8.736;2023-01-04T08:19:20;7.00;99.90
34558;DHT22;24708;48.888;8.736;2023-01-04T08:21:47;6.90;99.90
34558;DHT22;24708;48.888;8.736;2023-01-04T08:24:17;7.00;99.90
34558;DHT22;24708;48.888;8.736;2023-01-04T08:26:45;6.90;99.90
34558;DHT22;24708;48.888;8.736;2023-01-04T08:29:12;6.80;99.90
34558;DHT22;24708;48.888;8.736;2023-01-04T08:31:40;6.70;99.90
34558;DHT22;24708;48.888;8.736;2023-01-04T08:34:08;6.80;99.90
34558;DHT22;24708;48.888;8.736;2023-01-04T08:36:44;6.90;99.90
34558;DHT22;24708;48.888;8.736;2023-01-04T08:39:12;6.90;99.90
34558;DHT22;24708;48.888;8.736;2023-01-04T08:41:39;7.00;99.90
34558;DHT22;24708;48.888;8.736;2023-01-04T08:44:41;7.00;99.90
34558;DHT22;24708;48.888;8.736;2023-01-04T08:47:08;7.10;99.90
34558;DHT22;24708;48.888;8.736;2023-01-04T08:49:36;7.10;99.90
34558;DHT22;24708;48.888;8.736;2023-01-04T08:52:03;7.20;99.90
34558;DHT22;24708;48.888;8.736;2023-01-04T08:54:31;7.20;99.90
34558;DHT22;24708;48.888;8.736;2023-01-04T08:56:59;7.20;99.90
34558;DHT22;24708;48.888;8.736;2023-01-04T08:59:26;7.20;99.90
34558;DHT22;24708;48.888;8.736;2023-01-04T09:01:53;7.20;99.90
34558;DHT22;24708;48.888;8.736;2023-01-04T09:04:28;7.30;99.90
34558;DHT22;24708;48.888;8.736;2023-01-04T09:06:56;7.40;99.90
34558;DHT22;24708;48.888;8.736;2023-01-04T09:09:23;7.40;99.90
34558;DHT22;24708;48.888;8.736;2023-01-04T09:11:50;7.50;99.90
34558;DHT22;24708;48.888;8.736;2023-01-04T09:14:17;7.50;99.90
34558;DHT22;24708;48.888;8.736;2023-01-04T09:16:44;7.60;99.90
34558;DHT22;24708;48.888;8.736;2023-01-04T09:19:12;7.70;99.90
34558;DHT22;24708;48.888;8.736;2023-01-04T09:21:48;7.70;99.90
34558;DHT22;24708;48.888;8.736;2023-01-04T09:24:15;7.80;99.90
34558;DHT22;24708;48.888;8.736;2023-01-04T09:26:42;8.00;99.90
34558;DHT22;24708;48.888;8.736;2023-01-04T09:29:10;8.10;99.90
34558;DHT22;24708;48.888;8.736;2023-01-04T09:31:37;8.20;99.90
34558;DHT22;24708;48.888;8.736;2023-01-04T09:34:04;8.30;99.90
34558;DHT22;24708;48.888;8.736;2023-01-04T09:36:44;8.30;99.90
34558;DHT22;24708;48.888;8.736;2023-01-04T09:39:12;8.40;99.90
34558;DHT22;24708;48.888;8.736;2023-01-04T09:41:58;8.50;99.90
34558;DHT22;24708;48.888;8.736;2023-01-04T09:44:47;8.60;99.90
34558;DHT22;24708;48.888;8.736;2023-01-04T09:47:44;8.70;99.90
34558;DHT22;24708;48.888;8.736;2023-01-04T09:50:20;8.80;99.90
34558;DHT22;24708;48.888;8.736;2023-01-04T09:52:55;9.00;99.90
34558;DHT22;24708;48.888;8.736;2023-01-04T09:55:30;9.20;99.90
34558;DHT22;24708;48.888;8.736;2023-01-04T10:00:58;9.40;99.90
34558;DHT22;24708;48.888;8.736;2023-01-04T10:03:32;9.40;99.90
34558;DHT22;24708;48.888;8.736;2023-01-04T10:06:01;9.50;99.90
34558;DHT22;24708;48.888;8.736;2023-01-04T10:08:29;9.50;99.90
34558;DHT22;24708;48.888;8.736;2023-01-04T10:16:57;9.70;99.90
34558;DHT22;24708;48.888;8.736;2023-01-04T10:23:27;9.70;99.90
34558;DHT22;24708;48.888;8.736;2023-01-04T10:26:00;9.60;99.90
34558;DHT22;24708;48.888;8.736;2023-01-04T10:28:54;9.60;99.90
34558;DHT22;24708;48.888;8.736;2023-01-04T10:31:44;9.60;99.90
34558;DHT22;24708;48.888;8.736;2023-01-04T10:34:24;9.70;99.90
34558;DHT22;24708;48.888;8.736;2023-01-04T10:36:58;9.80;99.90
34558;DHT22;24708;48.888;8.736;2023-01-04T10:39:29;9.90;99.90
34558;DHT22;24708;48.888;8.736;2023-01-04T10:42:07;9.90;99.90
34558;DHT22;24708;48.888;8.736;2023-01-04T10:44:53;9.90;99.90
34558;DHT22;24708;48.888;8.736;2023-01-04T10:47:48;9.90;99.90
34558;DHT22;24708;48.888;8.736;2023-01-04T10:50:47;9.90;99.90
34558;DHT22;24708;48.888;8.736;2023-01-04T10:53:32;9.90;99.90
34558;DHT22;24708;48.888;8.736;2023-01-04T10:56:14;10.10;99.90
34558;DHT22;24708;48.888;8.736;2023-01-04T11:04:38;10.20;99.90
34558;DHT22;24708;48.888;8.736;2023-01-04T11:07:16;10.40;99.90
34558;DHT22;24708;48.888;8.736;2023-01-04T11:09:52;10.40;99.90
34558;DHT22;24708;48.888;8.736;2023-01-04T11:12:22;10.40;99.90
34558;DHT22;24708;48.888;8.736;2023-01-04T11:14:50;10.40;99.90
34558;DHT22;24708;48.888;8.736;2023-01-04T11:17:19;10.40;99.90
34558;DHT22;24708;48.888;8.736;2023-01-04T11:19:47;10.40;99.90
34558;DHT22;24708;48.888;8.736;2023-01-04T11:22:21;10.50;99.90
34558;DHT22;24708;48.888;8.736;2023-01-04T11:24:54;10.60;99.90
34558;DHT22;24708;48.888;8.736;2023-01-04T11:27:47;10.70;99.90
34558;DHT22;24708;48.888;8.736;2023-01-04T11:30:20;10.80;99.90
34558;DHT22;24708;48.888;8.736;2023-01-04T11:32:57;10.80;99.90
34558;DHT22;24708;48.888;8.736;2023-01-04T11:35:50;10.90;99.90
34558;DHT22;24708;48.888;8.736;2023-01-04T11:38:23;10.90;99.90
34558;DHT22;24708;48.888;8.736;2023-01-04T11:43:34;11.00;99.90
34558;DHT22;24708;48.888;8.736;2023-01-04T11:46:22;10.80;99.90
34558;DHT22;24708;48.888;8.736;2023-01-04T11:48:51;10.80;99.90
34558;DHT22;24708;48.888;8.736;2023-01-04T11:54:15;11.10;99.90
34558;DHT22;24708;48.888;8.736;2023-01-04T11:57:05;10.80;99.90
34558;DHT22;24708;48.888;8.736;2023-01-04T11:59:38;10.80;99.90
34558;DHT22;24708;48.888;8.736;2023-01-04T12:02:23;10.90;99.90
34558;DHT22;24708;48.888;8.736;2023-01-04T12:05:18;10.80;99.90
34558;DHT22;24708;48.888;8.736;2023-01-04T12:07:54;10.80;99.90
34558;DHT22;24708;48.888;8.736;2023-01-04T12:10:24;10.80;99.90
34558;DHT22;24708;48.888;8.736;2023-01-04T12:12:54;10.90;99.90
34558;DHT22;24708;48.888;8.736;2023-01-04T12:15:37;10.90;99.90
34558;DHT22;24708;48.888;8.736;2023-01-04T12:18:11;10.90;99.90
34558;DHT22;24708;48.888;8.736;2023-01-04T12:20:41;11.10;99.90
34558;DHT22;24708;48.888;8.736;2023-01-04T12:23:11;11.10;99.90
34558;DHT22;24708;48.888;8.736;2023-01-04T12:25:43;11.20;99.90
34558;DHT22;24708;48.888;8.736;2023-01-04T12:28:29;11.20;99.90
34558;DHT22;24708;48.888;8.736;2023-01-04T12:33:57;11.40;99.90
34558;DHT22;24708;48.888;8.736;2023-01-04T12:52:47;11.60;99.90
34558;DHT22;24708;48.888;8.736;2023-01-04T13:01:08;11.30;99.90
34558;DHT22;24708;48.888;8.736;2023-01-04T13:03:46;11.40;99.90
34558;DHT22;24708;48.888;8.736;2023-01-04T13:06:18;11.40;99.90
34558;DHT22;24708;48.888;8.736;2023-01-04T13:08:48;11.40;99.90
34558;DHT22;24708;48.888;8.736;2023-01-04T13:11:43;11.30;99.90
34558;DHT22;24708;48.888;8.736;2023-01-04T13:14:19;11.30;99.90
34558;DHT22;24708;48.888;8.736;2023-01-04T13:17:12;11.30;99.90
34558;DHT22;24708;48.888;8.736;2023-01-04T13:19:40;11.20;99.90
34558;DHT22;24708;48.888;8.736;2023-01-04T13:22:27;11.20;99.90
34558;DHT22;24708;48.888;8.736;2023-01-04T13:24:57;11.20;99.90
34558;DHT22;24708;48.888;8.736;2023-01-04T13:27:26;11.20;99.90
34558;DHT22;24708;48.888;8.736;2023-01-04T13:29:54;11.20;99.90
34558;DHT22;24708;48.888;8.736;2023-01-04T13:32:27;11.30;99.90
34558;DHT22;24708;48.888;8.736;2023-01-04T13:34:56;11.40;99.90
34558;DHT22;24708;48.888;8.736;2023-01-04T13:37:32;11.30;99.90
34558;DHT22;24708;48.888;8.736;2023-01-04T13:40:19;11.30;99.90
34558;DHT22;24708;48.888;8.736;2023-01-04T13:43:09;11.40;99.90
34558;DHT22;24708;48.888;8.736;2023-01-04T13:46:00;11.40;99.90
34558;DHT22;24708;48.888;8.736;2023-01-04T13:48:36;11.40;99.90
34558;DHT22;24708;48.888;8.736;2023-01-04T13:51:20;11.40;99.90
34558;DHT22;24708;48.888;8.736;2023-01-04T13:53:53;11.40;99.90
34558;DHT22;24708;48.888;8.736;2023-01-04T13:56:23;11.40;99.90
34558;DHT22;24708;48.888;8.736;2023-01-04T13:58:51;11.40;99.90
34558;DHT22;24708;48.888;8.736;2023-01-04T14:01:25;11.40;99.90
34558;DHT22;24708;48.888;8.736;2023-01-04T14:04:00;11.40;99.90
34558;DHT22;24708;48.888;8.736;2023-01-04T14:06:45;11.40;99.90
34558;DHT22;24708;48.888;8.736;2023-01-04T14:09:16;11.40;99.90
34558;DHT22;24708;48.888;8.736;2023-01-04T14:11:49;11.40;99.90
34558;DHT22;24708;48.888;8.736;2023-01-04T14:14:57;11.40;99.90
34558;DHT22;24708;48.888;8.736;2023-01-04T14:17:47;11.40;99.90
34558;DHT22;24708;48.888;8.736;2023-01-04T14:22:54;11.40;99.90
34558;DHT22;24708;48.888;8.736;2023-01-04T14:28:27;11.50;99.90
34558;DHT22;24708;48.888;8.736;2023-01-04T14:31:12;11.50;99.90
34558;DHT22;24708;48.888;8.736;2023-01-04T14:33:43;11.40;99.90
34558;DHT22;24708;48.888;8.736;2023-01-04T14:36:18;11.40;99.90
34558;DHT22;24708;48.888;8.736;2023-01-04T14:38:55;11.40;99.90
34558;DHT22;24708;48.888;8.736;2023-01-04T14:44:29;11.50;99.90
34558;DHT22;24708;48.888;8.736;2023-01-04T14:46:59;11.50;99.90
34558;DHT22;24708;48.888;8.736;2023-01-04T14:49:26;11.50;99.90
34558;DHT22;24708;48.888;8.736;2023-01-04T14:51:57;11.40;99.90
34558;DHT22;24708;48.888;8.736;2023-01-04T14:54:26;11.50;99.90
34558;DHT22;24708;48.888;8.736;2023-01-04T14:56:55;11.40;99.90
34558;DHT22;24708;48.888;8.736;2023-01-04T14:59:23;11.40;99.90
34558;DHT22;24708;48.888;8.736;2023-01-04T15:01:52;11.40;99.90
34558;DHT22;24708;48.888;8.736;2023-01-04T15:04:20;11.40;99.90
34558;DHT22;24708;48.888;8.736;2023-01-04T15:06:51;11.40;99.90
34558;DHT22;24708;48.888;8.736;2023-01-04T15:09:19;11.30;99.90
34558;DHT22;24708;48.888;8.736;2023-01-04T15:11:46;11.30;99.90
34558;DHT22;24708;48.888;8.736;2023-01-04T15:14:13;11.20;99.90
34558;DHT22;24708;48.888;8.736;2023-01-04T15:16:40;11.20;99.90
34558;DHT22;24708;48.888;8.736;2023-01-04T15:19:08;11.20;99.90
34558;DHT22;24708;48.888;8.736;2023-01-04T15:21:35;11.10;99.90
34558;DHT22;24708;48.888;8.736;2023-01-04T15:24:08;11.10;99.90
34558;DHT22;24708;48.888;8.736;2023-01-04T15:26:37;11.10;99.90
34558;DHT22;24708;48.888;8.736;2023-01-04T15:29:05;11.10;99.90
34558;DHT22;24708;48.888;8.736;2023-01-04T15:31:33;11.20;99.90
34558;DHT22;24708;48.888;8.736;2023-01-04T15:34:06;11.20;99.90
34558;DHT22;24708;48.888;8.736;2023-01-04T15:36:33;11.20;99.90
34558;DHT22;24708;48.888;8.736;2023-01-04T15:39:06;11.20;99.90
34558;DHT22;24708;48.888;8.736;2023-01-04T15:41:33;11.20;99.90
34558;DHT22;24708;48.888;8.736;2023-01-04T15:44:20;11.20;99.90
34558;DHT22;24708;48.888;8.736;2023-01-04T15:46:47;11.20;99.90
34558;DHT22;24708;48.888;8.736;2023-01-04T15:49:17;11.20;99.90
34558;DHT22;24708;48.888;8.736;2023-01-04T15:51:45;11.20;99.90
34558;DHT22;24708;48.888;8.736;2023-01-04T15:54:13;11.10;99.90
34558;DHT22;24708;48.888;8.736;2023-01-04T15:56:40;11.20;99.90
34558;DHT22;24708;48.888;8.736;2023-01-04T15:59:07;11.20;99.90
34558;DHT22;24708;48.888;8.736;2023-01-04T16:01:34;11.20;99.90
34558;DHT22;24708;48.888;8.736;2023-01-04T16:04:05;11.20;99.90
34558;DHT22;24708;48.888;8.736;2023-01-04T16:06:32;11.20;99.90
34558;DHT22;24708;48.888;8.736;2023-01-04T16:08:59;11.30;99.90
34558;DHT22;24708;48.888;8.736;2023-01-04T16:11:27;11.30;99.90
34558;DHT22;24708;48.888;8.736;2023-01-04T16:13:55;11.40;99.90
34558;DHT22;24708;48.888;8.736;2023-01-04T16:16:24;11.30;99.90
34558;DHT22;24708;48.888;8.736;2023-01-04T16:18:55;11.30;99.90
34558;DHT22;24708;48.888;8.736;2023-01-04T16:21:25;11.30;99.90
34558;DHT22;24708;48.888;8.736;2023-01-04T16:23:54;11.40;99.90
34558;DHT22;24708;48.888;8.736;2023-01-04T16:26:31;11.30;99.90
34558;DHT22;24708;48.888;8.736;2023-01-04T16:28:59;11.30;99.90
34558;DHT22;24708;48.888;8.736;2023-01-04T16:31:32;11.30;99.90
34558;DHT22;24708;48.888;8.736;2023-01-04T16:33:59;11.40;99.90
34558;DHT22;24708;48.888;8.736;2023-01-04T16:36:26;11.30;99.90
34558;DHT22;24708;48.888;8.736;2023-01-04T16:38:54;11.30;99.90
34558;DHT22;24708;48.888;8.736;2023-01-04T16:41:21;11.30;99.90
34558;DHT22;24708;48.888;8.736;2023-01-04T16:43:52;11.30;99.90
34558;DHT22;24708;48.888;8.736;2023-01-04T16:46:26;11.30;99.90
34558;DHT22;24708;48.888;8.736;2023-01-04T16:48:56;11.20;99.90
34558;DHT22;24708;48.888;8.736;2023-01-04T16:51:27;11.20;99.90
34558;DHT22;24708;48.888;8.736;2023-01-04T16:53:54;11.20;99.90
34558;DHT22;24708;48.888;8.736;2023-01-04T16:56:22;11.30;99.90
34558;DHT22;24708;48.888;8.736;2023-01-04T16:58:50;11.30;99.90
